createdAt,value
2018-02-20T00:00:24.463Z,0
2018-02-20T00:01:05.058Z,0
2018-02-20T00:01:45.597Z,0
2018-02-20T00:02:26.176Z,0
2018-02-20T00:03:06.735Z,0
2018-02-20T00:03:47.301Z,0
2018-02-20T00:04:27.868Z,0
2018-02-20T00:05:08.430Z,0
2018-02-20T00:05:48.984Z,0
2018-02-20T00:06:29.554Z,0
2018-02-20T00:07:10.121Z,0
2018-02-20T00:07:50.664Z,0
2018-02-20T00:08:31.220Z,0
2018-02-20T00:09:11.772Z,0
2018-02-20T00:09:52.378Z,0
2018-02-20T00:10:32.914Z,0
2018-02-20T00:11:13.514Z,0
2018-02-20T00:11:54.052Z,0
2018-02-20T00:12:34.862Z,0
2018-02-20T00:13:15.445Z,0
2018-02-20T00:13:56.019Z,0
2018-02-20T00:14:36.616Z,0
2018-02-20T00:15:17.157Z,0
2018-02-20T00:15:57.718Z,0
2018-02-20T00:16:38.248Z,0
2018-02-20T00:17:18.883Z,0
2018-02-20T00:17:59.404Z,0
2018-02-20T00:18:39.958Z,0
2018-02-20T00:19:20.555Z,0
2018-02-20T00:20:01.128Z,0
2018-02-20T00:20:41.692Z,0
2018-02-20T00:21:22.245Z,0
2018-02-20T00:22:02.810Z,0
2018-02-20T00:22:43.343Z,0
2018-02-20T00:23:23.946Z,0
2018-02-20T00:24:04.498Z,0
2018-02-20T00:24:45.049Z,0
2018-02-20T00:25:25.610Z,0
2018-02-20T00:26:06.160Z,0
2018-02-20T00:26:46.735Z,0
2018-02-20T00:27:27.286Z,0
2018-02-20T00:28:07.840Z,0
2018-02-20T00:28:48.370Z,0
2018-02-20T00:29:28.935Z,0
2018-02-20T00:30:09.495Z,0
2018-02-20T00:30:50.010Z,0
2018-02-20T00:31:30.577Z,0
2018-02-20T00:32:11.126Z,0
2018-02-20T00:32:51.688Z,0
2018-02-20T00:33:32.253Z,0
2018-02-20T00:34:12.814Z,0
2018-02-20T00:34:53.382Z,0
2018-02-20T00:35:33.944Z,0
2018-02-20T00:36:14.509Z,0
2018-02-20T00:36:55.070Z,0
2018-02-20T00:37:35.625Z,0
2018-02-20T00:38:16.185Z,0
2018-02-20T00:38:56.726Z,0
2018-02-20T00:39:37.299Z,0
2018-02-20T00:40:17.852Z,0
2018-02-20T00:40:58.405Z,0
2018-02-20T00:41:38.974Z,0
2018-02-20T00:42:19.521Z,0
2018-02-20T00:43:00.095Z,0
2018-02-20T00:43:40.621Z,0
2018-02-20T00:44:21.175Z,0
2018-02-20T00:45:01.713Z,0
2018-02-20T00:45:42.237Z,0
2018-02-20T00:46:22.809Z,0
2018-02-20T00:47:03.346Z,0
2018-02-20T00:47:43.893Z,0
2018-02-20T00:48:24.446Z,0
2018-02-20T00:49:05.018Z,0
2018-02-20T00:49:45.562Z,0
2018-02-20T00:50:26.117Z,0
2018-02-20T00:51:06.665Z,0
2018-02-20T00:51:47.230Z,0
2018-02-20T00:52:27.809Z,0
2018-02-20T00:53:08.368Z,0
2018-02-20T00:53:48.937Z,0
2018-02-20T00:54:29.493Z,0
2018-02-20T00:55:10.056Z,0
2018-02-20T00:55:50.616Z,0
2018-02-20T00:56:31.165Z,0
2018-02-20T00:57:11.738Z,0
2018-02-20T00:57:52.292Z,0
2018-02-20T00:58:32.853Z,0
2018-02-20T00:59:13.426Z,0
2018-02-20T00:59:53.982Z,0
2018-02-20T01:00:34.522Z,0
2018-02-20T01:01:15.076Z,0
2018-02-20T01:01:55.592Z,0
2018-02-20T01:02:36.158Z,0
2018-02-20T01:03:16.702Z,0
2018-02-20T01:03:57.262Z,0
2018-02-20T01:04:37.826Z,0
2018-02-20T01:05:18.371Z,0
2018-02-20T01:05:58.920Z,0
2018-02-20T01:06:39.463Z,0
2018-02-20T01:07:20.024Z,0
2018-02-20T01:08:00.580Z,0
2018-02-20T01:08:41.134Z,0
2018-02-20T01:09:21.692Z,0
2018-02-20T01:10:02.248Z,0
2018-02-20T01:10:42.817Z,0
2018-02-20T01:11:23.379Z,0
2018-02-20T01:12:03.935Z,0
2018-02-20T01:12:44.488Z,0
2018-02-20T01:13:25.076Z,0
2018-02-20T01:14:05.640Z,0
2018-02-20T01:14:46.203Z,0
2018-02-20T01:15:26.752Z,0
2018-02-20T01:16:07.318Z,0
2018-02-20T01:16:47.872Z,0
2018-02-20T01:17:28.442Z,0
2018-02-20T01:18:09.008Z,0
2018-02-20T01:18:49.564Z,0
2018-02-20T01:19:30.116Z,0
2018-02-20T01:20:10.679Z,0
2018-02-20T01:20:51.224Z,0
2018-02-20T01:21:31.792Z,0
2018-02-20T01:22:12.361Z,0
2018-02-20T01:22:52.915Z,0
2018-02-20T01:23:33.519Z,0
2018-02-20T01:24:14.079Z,0
2018-02-20T01:24:54.612Z,0
2018-02-20T01:25:35.150Z,0
2018-02-20T01:26:15.706Z,0
2018-02-20T01:26:56.257Z,0
2018-02-20T01:27:36.827Z,0
2018-02-20T01:28:17.404Z,0
2018-02-20T01:28:57.965Z,0
2018-02-20T01:29:38.531Z,0
2018-02-20T01:30:19.101Z,0
2018-02-20T01:30:59.655Z,0
2018-02-20T01:31:40.245Z,0
2018-02-20T01:32:20.785Z,0
2018-02-20T01:33:01.349Z,0
2018-02-20T01:33:41.941Z,0
2018-02-20T01:34:22.511Z,0
2018-02-20T01:35:03.074Z,0
2018-02-20T01:35:43.670Z,0
2018-02-20T01:36:24.165Z,0
2018-02-20T01:37:04.699Z,0
2018-02-20T01:37:45.227Z,0
2018-02-20T01:38:25.776Z,0
2018-02-20T01:39:06.317Z,0
2018-02-20T01:39:46.830Z,0
2018-02-20T01:40:27.312Z,0
2018-02-20T01:41:07.891Z,0
2018-02-20T01:41:48.429Z,0
2018-02-20T01:42:29.009Z,0
2018-02-20T01:43:09.544Z,0
2018-02-20T01:43:50.094Z,0
2018-02-20T01:44:30.629Z,0
2018-02-20T01:45:11.158Z,0
2018-02-20T01:45:51.730Z,0
2018-02-20T01:46:32.280Z,0
2018-02-20T01:47:12.827Z,0
2018-02-20T01:47:53.388Z,0
2018-02-20T01:48:33.957Z,0
2018-02-20T01:49:14.516Z,0
2018-02-20T01:49:55.076Z,0
2018-02-20T01:50:35.641Z,0
2018-02-20T01:51:16.212Z,0
2018-02-20T01:51:56.785Z,0
2018-02-20T01:52:37.344Z,0
2018-02-20T01:53:17.905Z,0
2018-02-20T01:53:58.459Z,0
2018-02-20T01:54:39.039Z,0
2018-02-20T01:55:19.599Z,0
2018-02-20T01:56:00.157Z,0
2018-02-20T01:56:40.710Z,0
2018-02-20T01:57:22.092Z,0
2018-02-20T01:58:02.661Z,0
2018-02-20T01:58:43.186Z,0
2018-02-20T01:59:23.749Z,0
2018-02-20T02:00:04.256Z,0
2018-02-20T02:00:44.805Z,0
2018-02-20T02:01:25.307Z,0
2018-02-20T02:02:05.814Z,0
2018-02-20T02:02:46.360Z,0
2018-02-20T02:03:26.910Z,0
2018-02-20T02:04:07.460Z,0
2018-02-20T02:04:48.016Z,0
2018-02-20T02:05:28.592Z,0
2018-02-20T02:06:09.146Z,0
2018-02-20T02:06:49.725Z,0
2018-02-20T02:07:30.240Z,0
2018-02-20T02:08:10.777Z,0
2018-02-20T02:08:51.363Z,0
2018-02-20T02:09:31.961Z,0
2018-02-20T02:10:12.534Z,0
2018-02-20T02:10:53.047Z,0
2018-02-20T02:11:33.555Z,0
2018-02-20T02:12:14.098Z,0
2018-02-20T02:12:54.633Z,0
2018-02-20T02:13:35.137Z,0
2018-02-20T02:14:15.702Z,0
2018-02-20T02:14:56.185Z,0
2018-02-20T02:15:36.818Z,0
2018-02-20T02:16:17.360Z,0
2018-02-20T02:16:57.852Z,0
2018-02-20T02:17:38.443Z,0
2018-02-20T02:18:18.944Z,0
2018-02-20T02:18:59.480Z,0
2018-02-20T02:19:40.023Z,0
2018-02-20T02:20:20.583Z,0
2018-02-20T02:21:01.101Z,0
2018-02-20T02:21:41.661Z,0
2018-02-20T02:22:22.245Z,0
2018-02-20T02:23:02.787Z,0
2018-02-20T02:23:43.324Z,0
2018-02-20T02:24:23.832Z,0
2018-02-20T02:25:04.372Z,0
2018-02-20T02:25:44.910Z,0
2018-02-20T02:26:25.417Z,0
2018-02-20T02:27:05.952Z,0
2018-02-20T02:27:46.487Z,0
2018-02-20T02:28:27.038Z,0
2018-02-20T02:29:07.598Z,0
2018-02-20T02:29:48.130Z,0
2018-02-20T02:30:28.614Z,0
2018-02-20T02:31:09.195Z,0
2018-02-20T02:31:49.659Z,0
2018-02-20T02:32:30.240Z,0
2018-02-20T02:33:10.803Z,0
2018-02-20T02:33:51.365Z,0
2018-02-20T02:34:31.850Z,0
2018-02-20T02:35:12.365Z,0
2018-02-20T02:35:52.902Z,0
2018-02-20T02:36:33.418Z,0
2018-02-20T02:37:13.992Z,0
2018-02-20T02:37:54.505Z,0
2018-02-20T02:38:35.069Z,0
2018-02-20T02:39:15.623Z,0
2018-02-20T02:39:56.173Z,0
2018-02-20T02:40:36.688Z,0
2018-02-20T02:41:17.299Z,0
2018-02-20T02:41:57.798Z,0
2018-02-20T02:42:38.333Z,0
2018-02-20T02:43:18.884Z,0
2018-02-20T02:43:59.396Z,0
2018-02-20T02:44:39.972Z,0
2018-02-20T02:45:20.520Z,0
2018-02-20T02:46:01.095Z,0
2018-02-20T02:46:41.659Z,0
2018-02-20T02:47:22.215Z,0
2018-02-20T02:48:02.778Z,0
2018-02-20T02:48:43.354Z,0
2018-02-20T02:49:23.897Z,0
2018-02-20T02:50:04.491Z,0
2018-02-20T02:50:45.061Z,0
2018-02-20T02:51:25.617Z,0
2018-02-20T02:52:06.188Z,0
2018-02-20T02:52:46.747Z,0
2018-02-20T02:53:27.291Z,0
2018-02-20T02:54:07.843Z,0
2018-02-20T02:54:48.418Z,0
2018-02-20T02:55:28.984Z,0
2018-02-20T02:56:09.557Z,0
2018-02-20T02:56:50.119Z,0
2018-02-20T02:57:30.671Z,0
2018-02-20T02:58:11.243Z,0
2018-02-20T02:58:51.800Z,0
2018-02-20T02:59:32.348Z,0
2018-02-20T03:00:12.926Z,0
2018-02-20T03:00:53.543Z,0
2018-02-20T03:01:34.155Z,0
2018-02-20T03:02:14.706Z,0
2018-02-20T03:02:55.252Z,0
2018-02-20T03:03:35.800Z,0
2018-02-20T03:04:16.363Z,0
2018-02-20T03:04:56.935Z,0
2018-02-20T03:05:37.493Z,0
2018-02-20T03:06:18.067Z,0
2018-02-20T03:06:58.644Z,0
2018-02-20T03:07:39.199Z,0
2018-02-20T03:08:19.754Z,0
2018-02-20T03:09:00.292Z,0
2018-02-20T03:09:40.831Z,0
2018-02-20T03:10:21.387Z,0
2018-02-20T03:11:01.957Z,0
2018-02-20T03:11:42.484Z,0
2018-02-20T03:12:23.039Z,0
2018-02-20T03:13:03.587Z,0
2018-02-20T03:13:44.143Z,0
2018-02-20T03:14:24.697Z,0
2018-02-20T03:15:05.255Z,0
2018-02-20T03:15:45.799Z,0
2018-02-20T03:16:26.358Z,0
2018-02-20T03:17:06.911Z,0
2018-02-20T03:17:47.476Z,0
2018-02-20T03:18:28.036Z,0
2018-02-20T03:19:08.606Z,0
2018-02-20T03:19:49.157Z,0
2018-02-20T03:20:29.740Z,0
2018-02-20T03:21:10.297Z,0
2018-02-20T03:21:50.867Z,0
2018-02-20T03:22:31.423Z,0
2018-02-20T03:23:11.985Z,0
2018-02-20T03:23:52.544Z,0
2018-02-20T03:24:33.101Z,0
2018-02-20T03:25:13.660Z,0
2018-02-20T03:25:54.212Z,0
2018-02-20T03:26:34.784Z,0
2018-02-20T03:27:15.387Z,0
2018-02-20T03:27:55.945Z,0
2018-02-20T03:28:36.494Z,0
2018-02-20T03:29:17.065Z,0
2018-02-20T03:29:57.615Z,0
2018-02-20T03:30:38.183Z,0
2018-02-20T03:31:18.741Z,0
2018-02-20T03:31:59.297Z,0
2018-02-20T03:32:39.862Z,0
2018-02-20T03:33:20.421Z,0
2018-02-20T03:34:00.953Z,0
2018-02-20T03:34:41.507Z,0
2018-02-20T03:35:22.065Z,0
2018-02-20T03:36:02.627Z,0
2018-02-20T03:36:43.183Z,0
2018-02-20T03:37:23.734Z,0
2018-02-20T03:38:04.295Z,0
2018-02-20T03:38:44.837Z,0
2018-02-20T03:39:25.391Z,0
2018-02-20T03:40:05.977Z,0
2018-02-20T03:40:46.554Z,0
2018-02-20T03:41:27.121Z,0
2018-02-20T03:42:07.678Z,0
2018-02-20T03:42:48.236Z,0
2018-02-20T03:43:28.766Z,0
2018-02-20T03:44:09.316Z,0
2018-02-20T03:44:49.871Z,0
2018-02-20T03:45:30.428Z,0
2018-02-20T03:46:10.981Z,0
2018-02-20T03:46:51.558Z,0
2018-02-20T03:47:32.101Z,0
2018-02-20T03:48:12.649Z,0
2018-02-20T03:48:53.197Z,0
2018-02-20T03:49:33.760Z,0
2018-02-20T03:50:14.319Z,0
2018-02-20T03:50:54.878Z,0
2018-02-20T03:51:35.424Z,0
2018-02-20T03:52:15.983Z,0
2018-02-20T03:52:56.573Z,0
2018-02-20T03:53:37.126Z,0
2018-02-20T03:54:17.691Z,0
2018-02-20T03:54:58.250Z,0
2018-02-20T03:55:38.840Z,0
2018-02-20T03:56:19.390Z,0
2018-02-20T03:56:59.952Z,0
2018-02-20T03:57:40.527Z,0
2018-02-20T03:58:21.112Z,0
2018-02-20T03:59:01.701Z,0
2018-02-20T03:59:42.273Z,0
2018-02-20T04:00:22.819Z,0
2018-02-20T04:01:03.377Z,0
2018-02-20T04:01:43.960Z,0
2018-02-20T04:02:24.538Z,0
2018-02-20T04:03:05.088Z,0
2018-02-20T04:03:45.647Z,0
2018-02-20T04:04:26.195Z,0
2018-02-20T04:05:06.742Z,0
2018-02-20T04:05:47.294Z,0
2018-02-20T04:06:27.862Z,0
2018-02-20T04:07:08.441Z,0
2018-02-20T04:07:49.000Z,0
2018-02-20T04:08:29.547Z,0
2018-02-20T04:09:10.109Z,0
2018-02-20T04:09:50.663Z,0
2018-02-20T04:10:31.229Z,0
2018-02-20T04:11:11.796Z,0
2018-02-20T04:11:52.373Z,0
2018-02-20T04:12:32.930Z,0
2018-02-20T04:13:13.500Z,0
2018-02-20T04:13:54.057Z,0
2018-02-20T04:14:34.606Z,0
2018-02-20T04:15:15.168Z,0
2018-02-20T04:15:55.732Z,0
2018-02-20T04:16:36.282Z,0
2018-02-20T04:17:16.843Z,0
2018-02-20T04:17:57.418Z,0
2018-02-20T04:18:37.990Z,0
2018-02-20T04:19:18.545Z,0
2018-02-20T04:19:59.111Z,0
2018-02-20T04:20:39.674Z,0
2018-02-20T04:21:20.232Z,0
2018-02-20T04:22:00.791Z,0
2018-02-20T04:22:41.367Z,0
2018-02-20T04:23:21.914Z,0
2018-02-20T04:24:02.564Z,0
2018-02-20T04:24:43.069Z,0
2018-02-20T04:25:23.602Z,0
2018-02-20T04:26:04.102Z,0
2018-02-20T04:26:44.694Z,0
2018-02-20T04:27:25.202Z,0
2018-02-20T04:28:05.737Z,0
2018-02-20T04:28:46.282Z,0
2018-02-20T04:29:26.821Z,0
2018-02-20T04:30:07.317Z,0
2018-02-20T04:30:47.856Z,0
2018-02-20T04:31:28.406Z,0
2018-02-20T04:32:08.942Z,0
2018-02-20T04:32:49.456Z,0
2018-02-20T04:33:30.000Z,0
2018-02-20T04:34:10.527Z,0
2018-02-20T04:34:51.042Z,0
2018-02-20T04:35:31.598Z,0
2018-02-20T04:36:12.145Z,0
2018-02-20T04:36:52.706Z,0
2018-02-20T04:37:33.313Z,0
2018-02-20T04:38:13.811Z,0
2018-02-20T04:38:54.307Z,0
2018-02-20T04:39:34.861Z,0
2018-02-20T04:40:15.593Z,0
2018-02-20T04:40:56.118Z,0
2018-02-20T04:41:36.680Z,0
2018-02-20T04:42:17.225Z,0
2018-02-20T04:42:57.810Z,0
2018-02-20T04:43:38.369Z,0
2018-02-20T04:44:18.935Z,0
2018-02-20T04:44:59.496Z,0
2018-02-20T04:45:40.048Z,0
2018-02-20T04:46:20.601Z,0
2018-02-20T04:47:01.169Z,0
2018-02-20T04:47:41.747Z,0
2018-02-20T04:48:22.283Z,0
2018-02-20T04:49:02.846Z,0
2018-02-20T04:49:43.424Z,0
2018-02-20T04:50:23.990Z,0
2018-02-20T04:51:04.543Z,0
2018-02-20T04:51:45.090Z,0
2018-02-20T04:52:25.741Z,0
2018-02-20T04:53:06.293Z,0
2018-02-20T04:53:46.844Z,0
2018-02-20T04:54:27.405Z,0
2018-02-20T04:55:07.981Z,0
2018-02-20T04:55:48.537Z,0
2018-02-20T04:56:29.195Z,0
2018-02-20T04:57:09.759Z,0
2018-02-20T04:57:50.317Z,0
2018-02-20T04:58:30.875Z,0
2018-02-20T04:59:11.421Z,0
2018-02-20T04:59:51.977Z,0
2018-02-20T05:00:32.533Z,0
2018-02-20T05:01:13.086Z,0
2018-02-20T05:01:53.642Z,0
2018-02-20T05:02:34.206Z,0
2018-02-20T05:03:14.780Z,0
2018-02-20T05:03:55.353Z,0
2018-02-20T05:04:35.911Z,0
2018-02-20T05:05:16.498Z,0
2018-02-20T05:05:57.062Z,0
2018-02-20T05:06:37.613Z,0
2018-02-20T05:07:18.159Z,0
2018-02-20T05:07:58.713Z,0
2018-02-20T05:08:39.265Z,0
2018-02-20T05:09:19.849Z,0
2018-02-20T05:10:00.404Z,0
2018-02-20T05:10:40.972Z,0
2018-02-20T05:11:21.520Z,0
2018-02-20T05:12:02.073Z,0
2018-02-20T05:12:42.637Z,0
2018-02-20T05:13:23.200Z,0
2018-02-20T05:14:03.748Z,0
2018-02-20T05:14:44.339Z,0
2018-02-20T05:15:24.921Z,0
2018-02-20T05:16:05.497Z,0
2018-02-20T05:16:46.046Z,0
2018-02-20T05:17:26.612Z,0
2018-02-20T05:18:07.162Z,0
2018-02-20T05:18:47.725Z,0
2018-02-20T05:19:28.277Z,0
2018-02-20T05:20:08.828Z,0
2018-02-20T05:20:49.376Z,0
2018-02-20T05:21:29.933Z,0
2018-02-20T05:22:10.557Z,0
2018-02-20T05:22:51.096Z,0
2018-02-20T05:23:31.645Z,0
2018-02-20T05:24:12.201Z,0
2018-02-20T05:24:52.777Z,0
2018-02-20T05:25:33.318Z,0
2018-02-20T05:26:13.875Z,0
2018-02-20T05:26:54.430Z,0
2018-02-20T05:27:34.983Z,0
2018-02-20T05:28:15.636Z,0
2018-02-20T05:28:56.219Z,0
2018-02-20T05:29:36.789Z,0
2018-02-20T05:30:17.348Z,0
2018-02-20T05:30:57.913Z,0
2018-02-20T05:31:38.478Z,0
2018-02-20T05:32:19.044Z,0
2018-02-20T05:32:59.591Z,0
2018-02-20T05:33:40.145Z,0
2018-02-20T05:34:20.688Z,0
2018-02-20T05:35:01.253Z,0
2018-02-20T05:35:41.809Z,0
2018-02-20T05:36:22.362Z,0
2018-02-20T05:37:02.921Z,0
2018-02-20T05:37:43.479Z,0
2018-02-20T05:38:24.047Z,0
2018-02-20T05:39:04.617Z,0
2018-02-20T05:39:45.181Z,0
2018-02-20T05:40:25.740Z,0
2018-02-20T05:41:06.402Z,0
2018-02-20T05:41:46.953Z,0
2018-02-20T05:42:27.516Z,0
2018-02-20T05:43:08.082Z,0
2018-02-20T05:43:48.680Z,0
2018-02-20T05:44:29.227Z,0
2018-02-20T05:45:09.812Z,0
2018-02-20T05:45:50.378Z,0
2018-02-20T05:46:30.936Z,0
2018-02-20T05:47:11.581Z,0
2018-02-20T05:47:52.132Z,0
2018-02-20T05:48:32.676Z,0
2018-02-20T05:49:13.227Z,0
2018-02-20T05:49:53.779Z,0
2018-02-20T05:50:34.345Z,0
2018-02-20T05:51:14.914Z,0
2018-02-20T05:51:55.469Z,0
2018-02-20T05:52:36.013Z,0
2018-02-20T05:53:16.579Z,0
2018-02-20T05:53:57.140Z,0
2018-02-20T05:54:37.692Z,0
2018-02-20T05:55:18.253Z,0
2018-02-20T05:55:58.851Z,0
2018-02-20T05:56:39.509Z,0
2018-02-20T05:57:20.086Z,0
2018-02-20T05:58:00.649Z,0
2018-02-20T05:58:41.192Z,0
2018-02-20T05:59:21.734Z,0
2018-02-20T06:00:02.338Z,0
2018-02-20T06:00:42.873Z,0
2018-02-20T06:01:23.442Z,0
2018-02-20T06:02:04.006Z,0
2018-02-20T06:02:44.568Z,0
2018-02-20T06:03:25.126Z,0
2018-02-20T06:04:05.694Z,0
2018-02-20T06:04:46.245Z,0
2018-02-20T06:05:26.795Z,4
2018-02-20T06:06:07.328Z,4
2018-02-20T06:06:47.914Z,4
2018-02-20T06:07:28.474Z,0
2018-02-20T06:08:09.088Z,0
2018-02-20T06:08:49.655Z,4
2018-02-20T06:09:30.213Z,4
2018-02-20T06:10:10.751Z,4
2018-02-20T06:10:51.314Z,0
2018-02-20T06:11:31.868Z,4
2018-02-20T06:12:12.445Z,4
2018-02-20T06:12:53.033Z,8
2018-02-20T06:13:33.595Z,4
2018-02-20T06:14:14.178Z,8
2018-02-20T06:14:54.683Z,8
2018-02-20T06:15:35.214Z,8
2018-02-20T06:16:15.716Z,8
2018-02-20T06:16:56.283Z,12
2018-02-20T06:17:36.832Z,12
2018-02-20T06:18:17.403Z,12
2018-02-20T06:18:57.954Z,12
2018-02-20T06:19:38.559Z,16
2018-02-20T06:20:19.048Z,12
2018-02-20T06:20:59.582Z,16
2018-02-20T06:21:40.825Z,16
2018-02-20T06:22:21.393Z,20
2018-02-20T06:23:01.958Z,20
2018-02-20T06:23:42.502Z,20
2018-02-20T06:24:23.055Z,20
2018-02-20T06:25:03.646Z,24
2018-02-20T06:25:44.193Z,28
2018-02-20T06:26:24.732Z,28
2018-02-20T06:27:05.277Z,28
2018-02-20T06:27:45.821Z,32
2018-02-20T06:28:27.065Z,32
2018-02-20T06:29:06.930Z,36
2018-02-20T06:29:47.563Z,36
2018-02-20T06:30:28.017Z,40
2018-02-20T06:31:08.676Z,40
2018-02-20T06:31:49.225Z,44
2018-02-20T06:32:29.844Z,44
2018-02-20T06:33:10.377Z,44
2018-02-20T06:33:50.934Z,48
2018-02-20T06:34:31.480Z,48
2018-02-20T06:35:12.032Z,48
2018-02-20T06:35:52.592Z,52
2018-02-20T06:36:33.194Z,52
2018-02-20T06:37:13.922Z,56
2018-02-20T06:37:54.577Z,60
2018-02-20T06:38:35.129Z,64
2018-02-20T06:39:15.695Z,64
2018-02-20T06:39:56.296Z,68
2018-02-20T06:40:36.775Z,72
2018-02-20T06:41:17.339Z,76
2018-02-20T06:41:57.902Z,80
2018-02-20T06:42:38.448Z,84
2018-02-20T06:43:19.020Z,84
2018-02-20T06:43:59.716Z,92
2018-02-20T06:44:40.279Z,92
2018-02-20T06:45:20.844Z,96
2018-02-20T06:46:01.393Z,100
2018-02-20T06:46:42.183Z,104
2018-02-20T06:47:22.837Z,104
2018-02-20T06:48:03.415Z,112
2018-02-20T06:48:43.988Z,112
2018-02-20T06:49:24.624Z,120
2018-02-20T06:50:05.524Z,124
2018-02-20T06:50:46.080Z,124
2018-02-20T06:51:26.677Z,132
2018-02-20T06:52:07.275Z,136
2018-02-20T06:52:47.842Z,140
2018-02-20T06:53:28.422Z,144
2018-02-20T06:54:09.371Z,148
2018-02-20T06:54:49.810Z,152
2018-02-20T06:55:30.366Z,156
2018-02-20T06:56:10.933Z,160
2018-02-20T06:56:51.490Z,164
2018-02-20T06:57:32.106Z,164
2018-02-20T06:58:12.646Z,164
2018-02-20T06:58:53.225Z,168
2018-02-20T06:59:33.855Z,172
2018-02-20T07:00:14.400Z,176
2018-02-20T07:00:55.169Z,180
2018-02-20T07:01:35.672Z,184
2018-02-20T07:02:16.263Z,196
2018-02-20T07:02:56.835Z,200
2018-02-20T07:03:37.394Z,204
2018-02-20T07:04:17.942Z,208
2018-02-20T07:04:58.532Z,212
2018-02-20T07:05:39.078Z,220
2018-02-20T07:06:19.644Z,224
2018-02-20T07:07:00.188Z,228
2018-02-20T07:07:40.749Z,232
2018-02-20T07:08:21.344Z,240
2018-02-20T07:09:01.876Z,236
2018-02-20T07:09:42.436Z,236
2018-02-20T07:10:23.032Z,248
2018-02-20T07:11:03.599Z,252
2018-02-20T07:11:44.157Z,260
2018-02-20T07:12:24.683Z,268
2018-02-20T07:13:05.270Z,272
2018-02-20T07:13:45.825Z,276
2018-02-20T07:14:26.385Z,280
2018-02-20T07:15:06.926Z,284
2018-02-20T07:15:47.550Z,292
2018-02-20T07:16:28.077Z,296
2018-02-20T07:17:08.700Z,304
2018-02-20T07:17:49.265Z,300
2018-02-20T07:18:29.826Z,300
2018-02-20T07:19:10.426Z,316
2018-02-20T07:19:50.932Z,328
2018-02-20T07:20:31.706Z,340
2018-02-20T07:21:12.312Z,348
2018-02-20T07:21:52.880Z,348
2018-02-20T07:22:33.439Z,360
2018-02-20T07:23:14.065Z,360
2018-02-20T07:23:54.784Z,364
2018-02-20T07:24:35.374Z,368
2018-02-20T07:25:15.954Z,376
2018-02-20T07:25:56.564Z,380
2018-02-20T07:26:37.150Z,392
2018-02-20T07:27:17.725Z,396
2018-02-20T07:27:58.274Z,400
2018-02-20T07:28:38.831Z,408
2018-02-20T07:29:19.468Z,416
2018-02-20T07:30:00.027Z,428
2018-02-20T07:30:40.636Z,432
2018-02-20T07:31:21.209Z,444
2018-02-20T07:32:01.764Z,452
2018-02-20T07:32:42.410Z,468
2018-02-20T07:33:22.951Z,476
2018-02-20T07:34:03.572Z,488
2018-02-20T07:34:44.104Z,496
2018-02-20T07:35:24.777Z,508
2018-02-20T07:36:05.329Z,520
2018-02-20T07:36:45.888Z,528
2018-02-20T07:37:26.450Z,536
2018-02-20T07:38:07.022Z,548
2018-02-20T07:38:47.599Z,560
2018-02-20T07:39:28.169Z,572
2018-02-20T07:40:08.725Z,584
2018-02-20T07:40:49.337Z,596
2018-02-20T07:41:29.840Z,612
2018-02-20T07:42:10.368Z,624
2018-02-20T07:42:50.939Z,636
2018-02-20T07:43:31.553Z,648
2018-02-20T07:44:12.210Z,664
2018-02-20T07:44:52.746Z,680
2018-02-20T07:45:33.312Z,688
2018-02-20T07:46:14.102Z,704
2018-02-20T07:46:54.625Z,712
2018-02-20T07:47:35.217Z,732
2018-02-20T07:48:15.805Z,752
2018-02-20T07:48:56.357Z,780
2018-02-20T07:49:36.928Z,804
2018-02-20T07:50:17.501Z,832
2018-02-20T07:50:58.055Z,852
2018-02-20T07:51:38.641Z,876
2018-02-20T07:52:19.197Z,896
2018-02-20T07:52:59.752Z,928
2018-02-20T07:53:40.286Z,964
2018-02-20T07:54:20.856Z,1000
2018-02-20T07:55:01.404Z,1036
2018-02-20T07:55:41.952Z,1068
2018-02-20T07:56:22.529Z,1084
2018-02-20T07:57:03.082Z,1104
2018-02-20T07:57:43.659Z,1128
2018-02-20T07:58:24.225Z,1156
2018-02-20T07:59:04.767Z,1168
2018-02-20T07:59:45.498Z,1208
2018-02-20T08:00:26.095Z,1264
2018-02-20T08:01:06.663Z,1284
2018-02-20T08:01:47.229Z,1288
2018-02-20T08:02:27.783Z,1308
2018-02-20T08:03:08.342Z,1352
2018-02-20T08:03:48.916Z,1360
2018-02-20T08:04:29.467Z,1372
2018-02-20T08:05:10.026Z,1396
2018-02-20T08:05:50.594Z,1416
2018-02-20T08:06:31.170Z,1424
2018-02-20T08:07:11.733Z,1440
2018-02-20T08:07:52.303Z,1452
2018-02-20T08:08:33.004Z,1456
2018-02-20T08:09:13.561Z,1472
2018-02-20T08:09:54.083Z,1488
2018-02-20T08:10:34.647Z,1516
2018-02-20T08:11:15.224Z,1492
2018-02-20T08:11:55.803Z,1500
2018-02-20T08:12:36.403Z,1508
2018-02-20T08:13:16.989Z,1516
2018-02-20T08:13:57.594Z,1544
2018-02-20T08:14:38.156Z,1572
2018-02-20T08:15:18.699Z,1576
2018-02-20T08:15:59.271Z,1564
2018-02-20T08:16:39.860Z,1576
2018-02-20T08:17:20.416Z,1584
2018-02-20T08:18:00.992Z,1592
2018-02-20T08:18:41.585Z,1608
2018-02-20T08:19:22.131Z,1620
2018-02-20T08:20:02.712Z,1628
2018-02-20T08:20:43.282Z,1636
2018-02-20T08:21:23.823Z,1640
2018-02-20T08:22:04.390Z,1652
2018-02-20T08:22:44.981Z,1664
2018-02-20T08:23:25.557Z,1680
2018-02-20T08:24:06.084Z,1704
2018-02-20T08:24:46.644Z,1732
2018-02-20T08:25:27.213Z,1752
2018-02-20T08:26:07.816Z,1768
2018-02-20T08:26:48.365Z,1780
2018-02-20T08:27:28.936Z,1800
2018-02-20T08:28:09.516Z,1788
2018-02-20T08:28:50.101Z,1824
2018-02-20T08:29:30.677Z,1832
2018-02-20T08:30:11.233Z,1872
2018-02-20T08:30:51.764Z,1908
2018-02-20T08:31:32.334Z,1940
2018-02-20T08:32:12.909Z,1956
2018-02-20T08:32:53.470Z,1968
2018-02-20T08:33:34.042Z,1988
2018-02-20T08:34:14.601Z,2004
2018-02-20T08:34:55.167Z,2028
2018-02-20T08:35:35.725Z,2052
2018-02-20T08:36:16.291Z,2092
2018-02-20T08:36:56.832Z,2148
2018-02-20T08:37:37.404Z,2184
2018-02-20T08:38:17.960Z,2200
2018-02-20T08:38:58.745Z,2212
2018-02-20T08:39:39.403Z,2224
2018-02-20T08:40:19.982Z,2248
2018-02-20T08:41:00.551Z,2280
2018-02-20T08:41:41.103Z,2296
2018-02-20T08:42:21.678Z,2304
2018-02-20T08:43:02.240Z,2296
2018-02-20T08:43:42.802Z,2292
2018-02-20T08:44:23.356Z,2312
2018-02-20T08:45:03.953Z,2324
2018-02-20T08:45:44.516Z,2356
2018-02-20T08:46:25.060Z,2392
2018-02-20T08:47:05.622Z,2412
2018-02-20T08:47:46.187Z,2428
2018-02-20T08:48:26.845Z,2432
2018-02-20T08:49:07.417Z,2440
2018-02-20T08:49:47.974Z,2456
2018-02-20T08:50:28.605Z,2492
2018-02-20T08:51:09.244Z,2520
2018-02-20T08:51:49.820Z,2532
2018-02-20T08:52:30.553Z,2528
2018-02-20T08:53:11.115Z,2516
2018-02-20T08:53:51.671Z,2500
2018-02-20T08:54:32.678Z,2492
2018-02-20T08:55:13.215Z,2488
2018-02-20T08:55:53.989Z,2476
2018-02-20T08:56:34.529Z,2460
2018-02-20T08:57:15.145Z,2452
2018-02-20T08:57:55.668Z,2436
2018-02-20T08:58:36.238Z,2440
2018-02-20T08:59:16.803Z,2460
2018-02-20T08:59:57.372Z,2484
2018-02-20T09:00:38.270Z,2500
2018-02-20T09:01:18.959Z,2524
2018-02-20T09:01:59.525Z,2560
2018-02-20T09:02:41.772Z,2568
2018-02-20T09:03:22.326Z,2572
2018-02-20T09:04:03.001Z,2532
2018-02-20T09:04:43.610Z,2588
2018-02-20T09:05:24.130Z,2616
2018-02-20T09:06:04.672Z,2660
2018-02-20T09:06:45.350Z,2688
2018-02-20T09:07:26.028Z,2688
2018-02-20T09:08:06.564Z,2636
2018-02-20T09:08:47.174Z,2740
2018-02-20T09:09:27.819Z,2760
2018-02-20T09:10:08.364Z,2832
2018-02-20T09:10:48.897Z,2880
2018-02-20T09:11:29.550Z,2908
2018-02-20T09:12:10.100Z,2936
2018-02-20T09:12:50.737Z,2964
2018-02-20T09:13:31.311Z,2976
2018-02-20T09:14:11.898Z,2984
2018-02-20T09:14:52.438Z,2996
2018-02-20T09:15:33.054Z,3012
2018-02-20T09:16:13.593Z,3028
2018-02-20T09:16:54.106Z,3036
2018-02-20T09:17:34.693Z,3072
2018-02-20T09:18:15.270Z,3132
2018-02-20T09:18:55.714Z,3188
2018-02-20T09:19:36.258Z,3208
2018-02-20T09:20:16.784Z,3224
2018-02-20T09:20:57.391Z,3244
2018-02-20T09:21:37.987Z,3276
2018-02-20T09:22:18.566Z,3324
2018-02-20T09:22:59.123Z,3352
2018-02-20T09:23:39.686Z,3376
2018-02-20T09:24:20.241Z,3408
2018-02-20T09:25:00.771Z,3440
2018-02-20T09:25:41.419Z,3464
2018-02-20T09:26:21.936Z,3484
2018-02-20T09:27:02.492Z,3484
2018-02-20T09:27:43.021Z,3472
2018-02-20T09:28:23.536Z,3468
2018-02-20T09:29:04.206Z,3456
2018-02-20T09:29:44.628Z,3436
2018-02-20T09:30:25.355Z,3424
2018-02-20T09:31:05.979Z,3424
2018-02-20T09:31:47.126Z,3436
2018-02-20T09:32:27.090Z,3420
2018-02-20T09:33:07.621Z,3420
2018-02-20T09:33:48.193Z,3448
2018-02-20T09:34:28.761Z,3464
2018-02-20T09:35:09.336Z,3480
2018-02-20T09:35:49.904Z,3444
2018-02-20T09:36:30.412Z,3444
2018-02-20T09:37:10.941Z,3508
2018-02-20T09:37:51.494Z,3488
2018-02-20T09:38:32.053Z,3588
2018-02-20T09:39:12.575Z,3680
2018-02-20T09:39:53.260Z,3724
2018-02-20T09:40:33.826Z,3756
2018-02-20T09:41:14.322Z,3816
2018-02-20T09:41:54.859Z,3868